sensor_id;sensor_type;location;lat;lon;timestamp;P1;durP1;ratioP1;P2;durP2;ratioP2
15132;SDS011;7667;51.232;17.110;2022-11-15T00:01:14;52.00;;;35.87;;
15132;SDS011;7667;51.232;17.110;2022-11-15T00:03:45;49.77;;;34.93;;
15132;SDS011;7667;51.232;17.110;2022-11-15T00:06:13;48.87;;;34.97;;
15132;SDS011;7667;51.232;17.110;2022-11-15T00:08:40;50.23;;;37.33;;
15132;SDS011;7667;51.232;17.110;2022-11-15T00:11:10;49.47;;;37.07;;
15132;SDS011;7667;51.232;17.110;2022-11-15T00:13:39;47.70;;;35.43;;
15132;SDS011;7667;51.232;17.110;2022-11-15T00:16:08;48.93;;;35.77;;
15132;SDS011;7667;51.232;17.110;2022-11-15T00:18:35;49.40;;;35.97;;
15132;SDS011;7667;51.232;17.110;2022-11-15T00:21:09;48.10;;;35.03;;
15132;SDS011;7667;51.232;17.110;2022-11-15T00:23:39;46.93;;;33.13;;
15132;SDS011;7667;51.232;17.110;2022-11-15T00:26:06;45.33;;;34.13;;
15132;SDS011;7667;51.232;17.110;2022-11-15T00:28:38;47.30;;;33.93;;
15132;SDS011;7667;51.232;17.110;2022-11-15T00:31:07;46.03;;;34.20;;
15132;SDS011;7667;51.232;17.110;2022-11-15T00:33:38;51.53;;;35.53;;
15132;SDS011;7667;51.232;17.110;2022-11-15T00:36:06;45.70;;;33.10;;
15132;SDS011;7667;51.232;17.110;2022-11-15T00:38:39;46.90;;;34.77;;
15132;SDS011;7667;51.232;17.110;2022-11-15T00:41:07;48.97;;;33.90;;
15132;SDS011;7667;51.232;17.110;2022-11-15T00:43:35;49.47;;;34.77;;
15132;SDS011;7667;51.232;17.110;2022-11-15T00:46:03;48.97;;;34.80;;
15132;SDS011;7667;51.232;17.110;2022-11-15T00:48:31;47.90;;;35.13;;
15132;SDS011;7667;51.232;17.110;2022-11-15T00:50:59;38.87;;;28.70;;
15132;SDS011;7667;51.232;17.110;2022-11-15T00:53:26;50.90;;;35.50;;
15132;SDS011;7667;51.232;17.110;2022-11-15T00:55:54;48.17;;;34.00;;
15132;SDS011;7667;51.232;17.110;2022-11-15T00:58:21;47.27;;;34.30;;
15132;SDS011;7667;51.232;17.110;2022-11-15T01:00:49;46.87;;;34.53;;
15132;SDS011;7667;51.232;17.110;2022-11-15T01:03:17;45.53;;;32.83;;
15132;SDS011;7667;51.232;17.110;2022-11-15T01:05:44;46.20;;;34.47;;
15132;SDS011;7667;51.232;17.110;2022-11-15T01:08:12;44.73;;;32.40;;
15132;SDS011;7667;51.232;17.110;2022-11-15T01:10:43;47.13;;;32.07;;
15132;SDS011;7667;51.232;17.110;2022-11-15T01:13:11;44.33;;;32.77;;
15132;SDS011;7667;51.232;17.110;2022-11-15T01:15:39;46.53;;;33.03;;
15132;SDS011;7667;51.232;17.110;2022-11-15T01:18:07;47.50;;;33.30;;
15132;SDS011;7667;51.232;17.110;2022-11-15T01:20:39;49.07;;;33.73;;
15132;SDS011;7667;51.232;17.110;2022-11-15T01:23:09;46.43;;;32.27;;
15132;SDS011;7667;51.232;17.110;2022-11-15T01:25:36;46.97;;;32.33;;
15132;SDS011;7667;51.232;17.110;2022-11-15T01:28:04;47.07;;;33.13;;
15132;SDS011;7667;51.232;17.110;2022-11-15T01:30:31;45.27;;;32.63;;
15132;SDS011;7667;51.232;17.110;2022-11-15T01:32:59;46.70;;;33.10;;
15132;SDS011;7667;51.232;17.110;2022-11-15T01:35:26;44.43;;;32.67;;
15132;SDS011;7667;51.232;17.110;2022-11-15T01:37:53;43.83;;;31.30;;
15132;SDS011;7667;51.232;17.110;2022-11-15T01:40:21;45.33;;;32.43;;
15132;SDS011;7667;51.232;17.110;2022-11-15T01:42:48;47.10;;;33.47;;
15132;SDS011;7667;51.232;17.110;2022-11-15T01:45:16;53.20;;;38.73;;
15132;SDS011;7667;51.232;17.110;2022-11-15T01:47:49;48.63;;;35.03;;
15132;SDS011;7667;51.232;17.110;2022-11-15T01:50:19;49.03;;;35.20;;
15132;SDS011;7667;51.232;17.110;2022-11-15T01:52:54;50.67;;;36.00;;
15132;SDS011;7667;51.232;17.110;2022-11-15T01:55:23;47.43;;;33.93;;
15132;SDS011;7667;51.232;17.110;2022-11-15T01:57:53;48.43;;;33.50;;
15132;SDS011;7667;51.232;17.110;2022-11-15T02:00:27;47.50;;;33.50;;
15132;SDS011;7667;51.232;17.110;2022-11-15T02:02:56;47.03;;;35.07;;
15132;SDS011;7667;51.232;17.110;2022-11-15T02:05:23;48.27;;;33.33;;
15132;SDS011;7667;51.232;17.110;2022-11-15T02:07:51;46.67;;;33.80;;
15132;SDS011;7667;51.232;17.110;2022-11-15T02:10:22;48.73;;;34.37;;
15132;SDS011;7667;51.232;17.110;2022-11-15T02:12:51;46.97;;;34.13;;
15132;SDS011;7667;51.232;17.110;2022-11-15T02:15:19;47.73;;;34.07;;
15132;SDS011;7667;51.232;17.110;2022-11-15T02:20:40;46.33;;;32.00;;
15132;SDS011;7667;51.232;17.110;2022-11-15T02:23:41;48.73;;;33.73;;
15132;SDS011;7667;51.232;17.110;2022-11-15T02:29:07;47.03;;;32.40;;
15132;SDS011;7667;51.232;17.110;2022-11-15T02:43:37;43.93;;;31.03;;
15132;SDS011;7667;51.232;17.110;2022-11-15T02:46:34;46.77;;;32.20;;
15132;SDS011;7667;51.232;17.110;2022-11-15T02:49:40;46.07;;;31.67;;
15132;SDS011;7667;51.232;17.110;2022-11-15T02:52:16;45.90;;;32.00;;
15132;SDS011;7667;51.232;17.110;2022-11-15T02:54:58;44.57;;;31.43;;
15132;SDS011;7667;51.232;17.110;2022-11-15T02:57:39;45.67;;;32.23;;
15132;SDS011;7667;51.232;17.110;2022-11-15T03:00:18;43.63;;;31.70;;
15132;SDS011;7667;51.232;17.110;2022-11-15T03:05:41;43.67;;;31.67;;
15132;SDS011;7667;51.232;17.110;2022-11-15T03:11:10;46.37;;;31.83;;
15132;SDS011;7667;51.232;17.110;2022-11-15T03:13:54;42.20;;;30.40;;
15132;SDS011;7667;51.232;17.110;2022-11-15T03:16:37;45.67;;;32.20;;
15132;SDS011;7667;51.232;17.110;2022-11-15T03:22:11;46.97;;;32.93;;
15132;SDS011;7667;51.232;17.110;2022-11-15T03:24:46;42.40;;;30.63;;
15132;SDS011;7667;51.232;17.110;2022-11-15T03:27:21;46.27;;;32.90;;
15132;SDS011;7667;51.232;17.110;2022-11-15T03:29:54;42.30;;;31.50;;
15132;SDS011;7667;51.232;17.110;2022-11-15T03:32:31;44.00;;;31.47;;
15132;SDS011;7667;51.232;17.110;2022-11-15T03:37:45;45.83;;;34.67;;
15132;SDS011;7667;51.232;17.110;2022-11-15T03:40:36;48.73;;;34.63;;
15132;SDS011;7667;51.232;17.110;2022-11-15T03:43:15;42.50;;;30.80;;
15132;SDS011;7667;51.232;17.110;2022-11-15T03:46:14;43.50;;;29.60;;
15132;SDS011;7667;51.232;17.110;2022-11-15T03:48:49;46.30;;;33.07;;
15132;SDS011;7667;51.232;17.110;2022-11-15T03:51:20;46.00;;;32.03;;
15132;SDS011;7667;51.232;17.110;2022-11-15T03:53:48;43.70;;;30.63;;
15132;SDS011;7667;51.232;17.110;2022-11-15T03:56:15;45.23;;;30.33;;
15132;SDS011;7667;51.232;17.110;2022-11-15T03:58:42;37.73;;;29.13;;
15132;SDS011;7667;51.232;17.110;2022-11-15T04:01:10;40.07;;;29.77;;
15132;SDS011;7667;51.232;17.110;2022-11-15T04:03:37;41.50;;;30.67;;
15132;SDS011;7667;51.232;17.110;2022-11-15T04:06:05;44.50;;;31.70;;
15132;SDS011;7667;51.232;17.110;2022-11-15T04:08:33;41.80;;;31.17;;
15132;SDS011;7667;51.232;17.110;2022-11-15T04:11:00;45.37;;;30.80;;
15132;SDS011;7667;51.232;17.110;2022-11-15T04:13:27;44.63;;;31.70;;
15132;SDS011;7667;51.232;17.110;2022-11-15T04:15:55;47.83;;;33.57;;
15132;SDS011;7667;51.232;17.110;2022-11-15T04:18:23;44.70;;;32.40;;
15132;SDS011;7667;51.232;17.110;2022-11-15T04:20:50;41.83;;;31.17;;
15132;SDS011;7667;51.232;17.110;2022-11-15T04:23:36;38.30;;;28.70;;
15132;SDS011;7667;51.232;17.110;2022-11-15T04:26:22;41.03;;;29.07;;
15132;SDS011;7667;51.232;17.110;2022-11-15T04:28:50;38.07;;;27.80;;
15132;SDS011;7667;51.232;17.110;2022-11-15T04:31:36;41.37;;;29.77;;
15132;SDS011;7667;51.232;17.110;2022-11-15T04:34:04;45.67;;;31.57;;
15132;SDS011;7667;51.232;17.110;2022-11-15T04:36:31;43.90;;;30.77;;
15132;SDS011;7667;51.232;17.110;2022-11-15T04:39:17;44.37;;;31.27;;
15132;SDS011;7667;51.232;17.110;2022-11-15T04:41:45;42.90;;;30.23;;
15132;SDS011;7667;51.232;17.110;2022-11-15T04:44:12;41.87;;;29.33;;
15132;SDS011;7667;51.232;17.110;2022-11-15T04:46:40;42.33;;;30.13;;
15132;SDS011;7667;51.232;17.110;2022-11-15T04:49:07;45.00;;;30.63;;
15132;SDS011;7667;51.232;17.110;2022-11-15T04:51:34;52.43;;;35.40;;
15132;SDS011;7667;51.232;17.110;2022-11-15T04:54:02;44.10;;;31.87;;
15132;SDS011;7667;51.232;17.110;2022-11-15T04:56:29;44.07;;;30.63;;
15132;SDS011;7667;51.232;17.110;2022-11-15T04:58:57;49.43;;;33.90;;
15132;SDS011;7667;51.232;17.110;2022-11-15T05:01:24;47.57;;;34.93;;
15132;SDS011;7667;51.232;17.110;2022-11-15T05:03:52;44.73;;;32.20;;
15132;SDS011;7667;51.232;17.110;2022-11-15T05:06:38;40.43;;;28.67;;
15132;SDS011;7667;51.232;17.110;2022-11-15T05:09:05;38.67;;;29.23;;
15132;SDS011;7667;51.232;17.110;2022-11-15T05:11:33;41.87;;;30.60;;
15132;SDS011;7667;51.232;17.110;2022-11-15T05:14:00;41.80;;;30.33;;
15132;SDS011;7667;51.232;17.110;2022-11-15T05:16:27;43.33;;;30.90;;
15132;SDS011;7667;51.232;17.110;2022-11-15T05:18:55;41.93;;;29.03;;
15132;SDS011;7667;51.232;17.110;2022-11-15T05:21:22;41.83;;;29.03;;
15132;SDS011;7667;51.232;17.110;2022-11-15T05:23:50;36.43;;;27.10;;
15132;SDS011;7667;51.232;17.110;2022-11-15T05:26:17;41.20;;;27.53;;
15132;SDS011;7667;51.232;17.110;2022-11-15T05:28:45;36.30;;;25.93;;
15132;SDS011;7667;51.232;17.110;2022-11-15T05:31:14;39.93;;;28.00;;
15132;SDS011;7667;51.232;17.110;2022-11-15T05:33:42;45.00;;;32.13;;
15132;SDS011;7667;51.232;17.110;2022-11-15T05:38:38;43.93;;;31.47;;
15132;SDS011;7667;51.232;17.110;2022-11-15T05:41:06;44.07;;;31.53;;
15132;SDS011;7667;51.232;17.110;2022-11-15T05:43:34;44.87;;;30.57;;
15132;SDS011;7667;51.232;17.110;2022-11-15T05:46:04;42.47;;;29.87;;
15132;SDS011;7667;51.232;17.110;2022-11-15T05:48:33;49.63;;;33.47;;
15132;SDS011;7667;51.232;17.110;2022-11-15T05:51:03;38.90;;;29.57;;
15132;SDS011;7667;51.232;17.110;2022-11-15T05:53:33;41.13;;;30.30;;
15132;SDS011;7667;51.232;17.110;2022-11-15T05:56:03;37.03;;;26.97;;
15132;SDS011;7667;51.232;17.110;2022-11-15T05:58:33;36.40;;;26.67;;
15132;SDS011;7667;51.232;17.110;2022-11-15T06:01:00;40.67;;;29.20;;
15132;SDS011;7667;51.232;17.110;2022-11-15T06:03:28;37.73;;;27.60;;
15132;SDS011;7667;51.232;17.110;2022-11-15T06:05:56;43.70;;;31.83;;
15132;SDS011;7667;51.232;17.110;2022-11-15T06:08:24;41.90;;;31.23;;
15132;SDS011;7667;51.232;17.110;2022-11-15T06:10:51;41.00;;;29.07;;
15132;SDS011;7667;51.232;17.110;2022-11-15T06:13:19;39.53;;;29.17;;
15132;SDS011;7667;51.232;17.110;2022-11-15T06:15:46;37.93;;;28.33;;
15132;SDS011;7667;51.232;17.110;2022-11-15T06:18:14;39.40;;;29.23;;
15132;SDS011;7667;51.232;17.110;2022-11-15T06:20:41;44.20;;;33.13;;
15132;SDS011;7667;51.232;17.110;2022-11-15T06:23:09;49.87;;;34.57;;
15132;SDS011;7667;51.232;17.110;2022-11-15T06:25:36;42.20;;;29.63;;
15132;SDS011;7667;51.232;17.110;2022-11-15T06:28:03;39.80;;;29.17;;
15132;SDS011;7667;51.232;17.110;2022-11-15T06:30:31;41.67;;;30.30;;
15132;SDS011;7667;51.232;17.110;2022-11-15T06:33:02;42.90;;;30.73;;
15132;SDS011;7667;51.232;17.110;2022-11-15T06:35:33;43.37;;;33.43;;
15132;SDS011;7667;51.232;17.110;2022-11-15T06:38:02;41.53;;;30.23;;
15132;SDS011;7667;51.232;17.110;2022-11-15T06:40:36;43.43;;;31.00;;
15132;SDS011;7667;51.232;17.110;2022-11-15T06:43:05;45.40;;;33.57;;
15132;SDS011;7667;51.232;17.110;2022-11-15T06:45:33;45.07;;;30.93;;
15132;SDS011;7667;51.232;17.110;2022-11-15T06:48:01;44.83;;;30.60;;
15132;SDS011;7667;51.232;17.110;2022-11-15T06:50:28;44.63;;;32.20;;
15132;SDS011;7667;51.232;17.110;2022-11-15T06:53:00;46.33;;;34.30;;
15132;SDS011;7667;51.232;17.110;2022-11-15T06:55:29;51.47;;;36.43;;
15132;SDS011;7667;51.232;17.110;2022-11-15T06:57:57;46.53;;;34.07;;
15132;SDS011;7667;51.232;17.110;2022-11-15T07:00:24;47.93;;;33.00;;
15132;SDS011;7667;51.232;17.110;2022-11-15T07:02:52;46.47;;;33.00;;
15132;SDS011;7667;51.232;17.110;2022-11-15T07:05:19;44.30;;;31.93;;
15132;SDS011;7667;51.232;17.110;2022-11-15T07:07:53;36.97;;;28.07;;
15132;SDS011;7667;51.232;17.110;2022-11-15T07:10:22;38.40;;;27.50;;
15132;SDS011;7667;51.232;17.110;2022-11-15T07:12:52;42.70;;;27.87;;
15132;SDS011;7667;51.232;17.110;2022-11-15T07:15:21;38.97;;;28.37;;
15132;SDS011;7667;51.232;17.110;2022-11-15T07:17:52;41.17;;;30.10;;
15132;SDS011;7667;51.232;17.110;2022-11-15T07:20:20;51.27;;;34.93;;
15132;SDS011;7667;51.232;17.110;2022-11-15T07:22:47;47.13;;;32.87;;
15132;SDS011;7667;51.232;17.110;2022-11-15T07:25:15;46.27;;;32.30;;
15132;SDS011;7667;51.232;17.110;2022-11-15T07:27:43;42.13;;;30.60;;
15132;SDS011;7667;51.232;17.110;2022-11-15T07:30:10;41.17;;;30.77;;
15132;SDS011;7667;51.232;17.110;2022-11-15T07:32:41;45.00;;;34.77;;
15132;SDS011;7667;51.232;17.110;2022-11-15T07:35:08;45.80;;;34.87;;
15132;SDS011;7667;51.232;17.110;2022-11-15T07:37:35;48.97;;;35.13;;
15132;SDS011;7667;51.232;17.110;2022-11-15T07:40:03;43.70;;;33.87;;
15132;SDS011;7667;51.232;17.110;2022-11-15T07:42:31;43.03;;;31.97;;
15132;SDS011;7667;51.232;17.110;2022-11-15T07:45:17;39.37;;;29.37;;
15132;SDS011;7667;51.232;17.110;2022-11-15T07:47:46;38.83;;;28.73;;
15132;SDS011;7667;51.232;17.110;2022-11-15T07:50:15;41.57;;;28.93;;
15132;SDS011;7667;51.232;17.110;2022-11-15T07:52:44;42.67;;;28.77;;
15132;SDS011;7667;51.232;17.110;2022-11-15T07:55:11;42.13;;;29.50;;
15132;SDS011;7667;51.232;17.110;2022-11-15T07:57:39;45.70;;;30.57;;
15132;SDS011;7667;51.232;17.110;2022-11-15T08:00:07;43.70;;;31.50;;
15132;SDS011;7667;51.232;17.110;2022-11-15T08:02:35;42.90;;;30.87;;
15132;SDS011;7667;51.232;17.110;2022-11-15T08:05:03;41.50;;;30.03;;
15132;SDS011;7667;51.232;17.110;2022-11-15T08:07:31;39.60;;;29.33;;
15132;SDS011;7667;51.232;17.110;2022-11-15T08:09:59;39.53;;;28.77;;
15132;SDS011;7667;51.232;17.110;2022-11-15T08:12:30;34.63;;;25.93;;
15132;SDS011;7667;51.232;17.110;2022-11-15T08:14:58;38.47;;;26.77;;
15132;SDS011;7667;51.232;17.110;2022-11-15T08:17:26;35.23;;;27.33;;
15132;SDS011;7667;51.232;17.110;2022-11-15T08:19:53;38.00;;;26.90;;
15132;SDS011;7667;51.232;17.110;2022-11-15T08:22:21;36.03;;;26.50;;
15132;SDS011;7667;51.232;17.110;2022-11-15T08:24:48;35.27;;;25.30;;
15132;SDS011;7667;51.232;17.110;2022-11-15T08:27:16;37.80;;;27.27;;
15132;SDS011;7667;51.232;17.110;2022-11-15T08:29:44;35.47;;;26.27;;
15132;SDS011;7667;51.232;17.110;2022-11-15T08:32:11;36.87;;;27.63;;
15132;SDS011;7667;51.232;17.110;2022-11-15T08:34:39;39.20;;;27.70;;
15132;SDS011;7667;51.232;17.110;2022-11-15T08:37:06;37.80;;;28.13;;
15132;SDS011;7667;51.232;17.110;2022-11-15T08:39:34;35.23;;;26.17;;
15132;SDS011;7667;51.232;17.110;2022-11-15T08:42:01;35.00;;;26.57;;
15132;SDS011;7667;51.232;17.110;2022-11-15T08:44:29;34.33;;;25.47;;
15132;SDS011;7667;51.232;17.110;2022-11-15T08:46:56;35.50;;;25.43;;
15132;SDS011;7667;51.232;17.110;2022-11-15T08:49:23;34.27;;;26.27;;
15132;SDS011;7667;51.232;17.110;2022-11-15T08:51:51;37.57;;;26.83;;
15132;SDS011;7667;51.232;17.110;2022-11-15T08:54:18;33.10;;;24.87;;
15132;SDS011;7667;51.232;17.110;2022-11-15T08:56:46;36.13;;;26.83;;
15132;SDS011;7667;51.232;17.110;2022-11-15T08:59:14;35.60;;;26.70;;
15132;SDS011;7667;51.232;17.110;2022-11-15T09:01:41;35.13;;;25.20;;
15132;SDS011;7667;51.232;17.110;2022-11-15T09:04:09;32.57;;;25.40;;
15132;SDS011;7667;51.232;17.110;2022-11-15T09:06:37;33.17;;;25.93;;
15132;SDS011;7667;51.232;17.110;2022-11-15T09:09:08;40.40;;;29.40;;
15132;SDS011;7667;51.232;17.110;2022-11-15T09:11:36;37.37;;;28.20;;
15132;SDS011;7667;51.232;17.110;2022-11-15T09:14:04;38.97;;;28.60;;
15132;SDS011;7667;51.232;17.110;2022-11-15T09:16:31;45.63;;;37.93;;
15132;SDS011;7667;51.232;17.110;2022-11-15T09:18:59;37.43;;;28.10;;
15132;SDS011;7667;51.232;17.110;2022-11-15T09:21:26;34.87;;;24.67;;
15132;SDS011;7667;51.232;17.110;2022-11-15T09:23:55;34.77;;;25.53;;
15132;SDS011;7667;51.232;17.110;2022-11-15T09:26:23;37.00;;;27.03;;
15132;SDS011;7667;51.232;17.110;2022-11-15T09:28:51;34.83;;;25.27;;
15132;SDS011;7667;51.232;17.110;2022-11-15T09:31:18;32.00;;;23.30;;
15132;SDS011;7667;51.232;17.110;2022-11-15T09:33:47;31.07;;;21.83;;
15132;SDS011;7667;51.232;17.110;2022-11-15T09:36:15;32.57;;;23.53;;
15132;SDS011;7667;51.232;17.110;2022-11-15T09:38:43;32.40;;;22.60;;
15132;SDS011;7667;51.232;17.110;2022-11-15T09:47:16;29.87;;;22.47;;
15132;SDS011;7667;51.232;17.110;2022-11-15T09:50:36;28.37;;;22.07;;
15132;SDS011;7667;51.232;17.110;2022-11-15T09:53:11;27.10;;;19.67;;
15132;SDS011;7667;51.232;17.110;2022-11-15T09:56:29;28.27;;;20.53;;
15132;SDS011;7667;51.232;17.110;2022-11-15T10:02:23;31.77;;;21.10;;
15132;SDS011;7667;51.232;17.110;2022-11-15T10:05:32;25.77;;;18.57;;
15132;SDS011;7667;51.232;17.110;2022-11-15T10:11:06;25.27;;;18.87;;
15132;SDS011;7667;51.232;17.110;2022-11-15T10:14:18;26.90;;;20.13;;
15132;SDS011;7667;51.232;17.110;2022-11-15T10:17:09;29.13;;;21.13;;
15132;SDS011;7667;51.232;17.110;2022-11-15T10:22:39;34.90;;;22.30;;
15132;SDS011;7667;51.232;17.110;2022-11-15T10:27:59;33.53;;;24.17;;
15132;SDS011;7667;51.232;17.110;2022-11-15T10:30:35;26.80;;;19.57;;
15132;SDS011;7667;51.232;17.110;2022-11-15T10:33:17;25.27;;;17.77;;
15132;SDS011;7667;51.232;17.110;2022-11-15T10:39:10;21.10;;;14.37;;
15132;SDS011;7667;51.232;17.110;2022-11-15T10:41:31;17.67;;;12.07;;
15132;SDS011;7667;51.232;17.110;2022-11-15T10:46:34;18.77;;;12.37;;
15132;SDS011;7667;51.232;17.110;2022-11-15T10:49:20;16.70;;;11.80;;
15132;SDS011;7667;51.232;17.110;2022-11-15T10:52:28;16.00;;;10.40;;
15132;SDS011;7667;51.232;17.110;2022-11-15T10:54:56;17.27;;;10.37;;
15132;SDS011;7667;51.232;17.110;2022-11-15T10:57:31;17.57;;;11.43;;
15132;SDS011;7667;51.232;17.110;2022-11-15T11:10:54;15.17;;;10.67;;
15132;SDS011;7667;51.232;17.110;2022-11-15T11:13:30;14.77;;;10.47;;
15132;SDS011;7667;51.232;17.110;2022-11-15T11:18:38;15.47;;;10.93;;
15132;SDS011;7667;51.232;17.110;2022-11-15T11:24:17;15.67;;;10.33;;
15132;SDS011;7667;51.232;17.110;2022-11-15T11:27:20;15.10;;;10.67;;
15132;SDS011;7667;51.232;17.110;2022-11-15T11:30:03;15.73;;;10.37;;
15132;SDS011;7667;51.232;17.110;2022-11-15T11:32:57;17.00;;;11.47;;
15132;SDS011;7667;51.232;17.110;2022-11-15T11:38:41;17.97;;;12.00;;
15132;SDS011;7667;51.232;17.110;2022-11-15T11:45:14;21.57;;;12.60;;
15132;SDS011;7667;51.232;17.110;2022-11-15T11:50:41;20.77;;;13.20;;
15132;SDS011;7667;51.232;17.110;2022-11-15T11:55:57;18.83;;;12.70;;
15132;SDS011;7667;51.232;17.110;2022-11-15T11:58:44;21.00;;;13.57;;
15132;SDS011;7667;51.232;17.110;2022-11-15T12:01:16;24.83;;;14.07;;
15132;SDS011;7667;51.232;17.110;2022-11-15T12:09:44;19.10;;;14.03;;
15132;SDS011;7667;51.232;17.110;2022-11-15T12:15:26;21.70;;;13.87;;
15132;SDS011;7667;51.232;17.110;2022-11-15T12:18:18;21.77;;;13.93;;
15132;SDS011;7667;51.232;17.110;2022-11-15T12:20:51;22.07;;;15.00;;
15132;SDS011;7667;51.232;17.110;2022-11-15T12:23:25;20.13;;;14.30;;
15132;SDS011;7667;51.232;17.110;2022-11-15T12:26:10;22.17;;;15.03;;
15132;SDS011;7667;51.232;17.110;2022-11-15T12:29:05;24.20;;;14.60;;
15132;SDS011;7667;51.232;17.110;2022-11-15T12:31:48;22.60;;;15.60;;
15132;SDS011;7667;51.232;17.110;2022-11-15T12:36:49;22.60;;;15.67;;
15132;SDS011;7667;51.232;17.110;2022-11-15T12:39:18;27.13;;;15.97;;
15132;SDS011;7667;51.232;17.110;2022-11-15T13:17:47;22.53;;;14.87;;
15132;SDS011;7667;51.232;17.110;2022-11-15T13:20:29;24.63;;;15.83;;
15132;SDS011;7667;51.232;17.110;2022-11-15T13:31:25;21.87;;;14.63;;
15132;SDS011;7667;51.232;17.110;2022-11-15T13:39:47;19.40;;;12.80;;
15132;SDS011;7667;51.232;17.110;2022-11-15T13:42:16;22.07;;;13.87;;
15132;SDS011;7667;51.232;17.110;2022-11-15T13:44:56;24.90;;;15.20;;
15132;SDS011;7667;51.232;17.110;2022-11-15T13:47:27;22.93;;;14.00;;
15132;SDS011;7667;51.232;17.110;2022-11-15T13:49:56;20.93;;;13.47;;
15132;SDS011;7667;51.232;17.110;2022-11-15T13:52:27;19.73;;;12.80;;
15132;SDS011;7667;51.232;17.110;2022-11-15T13:55:08;21.57;;;12.63;;
15132;SDS011;7667;51.232;17.110;2022-11-15T14:00:32;27.57;;;14.83;;
15132;SDS011;7667;51.232;17.110;2022-11-15T14:03:26;24.07;;;14.13;;
15132;SDS011;7667;51.232;17.110;2022-11-15T14:08:40;32.27;;;18.20;;
15132;SDS011;7667;51.232;17.110;2022-11-15T14:11:12;31.57;;;18.20;;
15132;SDS011;7667;51.232;17.110;2022-11-15T14:14:00;34.30;;;19.60;;
15132;SDS011;7667;51.232;17.110;2022-11-15T14:16:36;31.77;;;18.23;;
15132;SDS011;7667;51.232;17.110;2022-11-15T14:19:13;27.57;;;17.40;;
15132;SDS011;7667;51.232;17.110;2022-11-15T14:22:21;30.63;;;16.77;;
15132;SDS011;7667;51.232;17.110;2022-11-15T14:27:41;28.27;;;16.10;;
15132;SDS011;7667;51.232;17.110;2022-11-15T14:30:14;25.43;;;14.87;;
15132;SDS011;7667;51.232;17.110;2022-11-15T14:32:47;22.43;;;12.87;;
15132;SDS011;7667;51.232;17.110;2022-11-15T14:35:18;17.97;;;11.67;;
15132;SDS011;7667;51.232;17.110;2022-11-15T14:37:47;18.90;;;11.53;;
15132;SDS011;7667;51.232;17.110;2022-11-15T14:40:17;26.97;;;14.83;;
15132;SDS011;7667;51.232;17.110;2022-11-15T14:42:47;23.43;;;16.70;;
15132;SDS011;7667;51.232;17.110;2022-11-15T14:45:20;28.53;;;19.97;;
15132;SDS011;7667;51.232;17.110;2022-11-15T14:47:48;32.23;;;20.77;;
15132;SDS011;7667;51.232;17.110;2022-11-15T14:50:17;31.43;;;20.33;;
15132;SDS011;7667;51.232;17.110;2022-11-15T14:52:48;30.17;;;19.90;;
15132;SDS011;7667;51.232;17.110;2022-11-15T14:55:23;29.43;;;19.93;;
15132;SDS011;7667;51.232;17.110;2022-11-15T14:57:58;27.07;;;19.37;;
15132;SDS011;7667;51.232;17.110;2022-11-15T15:00:25;29.70;;;21.33;;
15132;SDS011;7667;51.232;17.110;2022-11-15T15:03:00;26.47;;;19.53;;
15132;SDS011;7667;51.232;17.110;2022-11-15T15:05:34;27.13;;;20.43;;
15132;SDS011;7667;51.232;17.110;2022-11-15T15:08:09;27.47;;;19.33;;
15132;SDS011;7667;51.232;17.110;2022-11-15T15:10:39;29.47;;;19.67;;
15132;SDS011;7667;51.232;17.110;2022-11-15T15:13:17;23.47;;;17.27;;
15132;SDS011;7667;51.232;17.110;2022-11-15T15:15:49;26.30;;;18.13;;
15132;SDS011;7667;51.232;17.110;2022-11-15T15:18:18;23.63;;;17.97;;
15132;SDS011;7667;51.232;17.110;2022-11-15T15:20:48;23.83;;;17.10;;
15132;SDS011;7667;51.232;17.110;2022-11-15T15:23:26;30.37;;;20.50;;
15132;SDS011;7667;51.232;17.110;2022-11-15T15:25:57;28.17;;;19.30;;
15132;SDS011;7667;51.232;17.110;2022-11-15T15:28:25;30.50;;;19.40;;
15132;SDS011;7667;51.232;17.110;2022-11-15T15:30:59;24.17;;;17.80;;
15132;SDS011;7667;51.232;17.110;2022-11-15T15:33:28;23.80;;;18.87;;
15132;SDS011;7667;51.232;17.110;2022-11-15T15:35:55;29.07;;;19.27;;
15132;SDS011;7667;51.232;17.110;2022-11-15T15:38:23;76.97;;;38.40;;
15132;SDS011;7667;51.232;17.110;2022-11-15T15:40:50;32.67;;;22.43;;
15132;SDS011;7667;51.232;17.110;2022-11-15T15:43:18;31.07;;;22.00;;
15132;SDS011;7667;51.232;17.110;2022-11-15T15:45:45;33.23;;;22.97;;
15132;SDS011;7667;51.232;17.110;2022-11-15T15:48:14;36.90;;;23.43;;
15132;SDS011;7667;51.232;17.110;2022-11-15T15:50:42;30.37;;;21.37;;
15132;SDS011;7667;51.232;17.110;2022-11-15T15:53:11;83.87;;;50.90;;
15132;SDS011;7667;51.232;17.110;2022-11-15T15:55:40;54.20;;;37.20;;
15132;SDS011;7667;51.232;17.110;2022-11-15T15:58:08;49.33;;;32.87;;
15132;SDS011;7667;51.232;17.110;2022-11-15T16:00:36;43.83;;;30.80;;
15132;SDS011;7667;51.232;17.110;2022-11-15T16:03:04;36.23;;;25.77;;
15132;SDS011;7667;51.232;17.110;2022-11-15T16:05:31;31.97;;;22.63;;
15132;SDS011;7667;51.232;17.110;2022-11-15T16:07:59;39.53;;;29.47;;
15132;SDS011;7667;51.232;17.110;2022-11-15T16:10:28;37.10;;;26.40;;
15132;SDS011;7667;51.232;17.110;2022-11-15T16:12:58;34.00;;;25.17;;
15132;SDS011;7667;51.232;17.110;2022-11-15T16:15:26;34.30;;;23.73;;
15132;SDS011;7667;51.232;17.110;2022-11-15T16:17:57;44.27;;;30.60;;
15132;SDS011;7667;51.232;17.110;2022-11-15T16:23:10;45.63;;;32.10;;
15132;SDS011;7667;51.232;17.110;2022-11-15T16:28:29;49.63;;;33.33;;
15132;SDS011;7667;51.232;17.110;2022-11-15T16:31:03;38.67;;;29.77;;
15132;SDS011;7667;51.232;17.110;2022-11-15T16:33:31;39.33;;;28.57;;
15132;SDS011;7667;51.232;17.110;2022-11-15T16:36:00;36.70;;;30.50;;
15132;SDS011;7667;51.232;17.110;2022-11-15T16:38:28;31.67;;;25.27;;
15132;SDS011;7667;51.232;17.110;2022-11-15T16:40:56;31.27;;;23.27;;
15132;SDS011;7667;51.232;17.110;2022-11-15T16:43:24;46.80;;;37.30;;
15132;SDS011;7667;51.232;17.110;2022-11-15T16:45:51;83.37;;;67.23;;
15132;SDS011;7667;51.232;17.110;2022-11-15T16:48:21;140.03;;;90.03;;
15132;SDS011;7667;51.232;17.110;2022-11-15T16:50:55;74.73;;;50.60;;
15132;SDS011;7667;51.232;17.110;2022-11-15T16:53:26;41.37;;;29.67;;
15132;SDS011;7667;51.232;17.110;2022-11-15T16:55:54;38.60;;;27.73;;
15132;SDS011;7667;51.232;17.110;2022-11-15T16:58:22;39.97;;;31.67;;
15132;SDS011;7667;51.232;17.110;2022-11-15T17:00:54;94.53;;;56.87;;
15132;SDS011;7667;51.232;17.110;2022-11-15T17:03:23;60.33;;;40.43;;
15132;SDS011;7667;51.232;17.110;2022-11-15T17:05:51;44.10;;;30.43;;
15132;SDS011;7667;51.232;17.110;2022-11-15T17:08:18;48.80;;;37.17;;
15132;SDS011;7667;51.232;17.110;2022-11-15T17:10:47;46.27;;;33.50;;
15132;SDS011;7667;51.232;17.110;2022-11-15T17:13:15;51.63;;;36.00;;
15132;SDS011;7667;51.232;17.110;2022-11-15T17:15:42;47.50;;;35.77;;
15132;SDS011;7667;51.232;17.110;2022-11-15T17:18:10;46.07;;;34.23;;
15132;SDS011;7667;51.232;17.110;2022-11-15T17:20:41;43.60;;;34.83;;
15132;SDS011;7667;51.232;17.110;2022-11-15T17:23:12;42.70;;;33.20;;
15132;SDS011;7667;51.232;17.110;2022-11-15T17:25:40;41.13;;;32.27;;
15132;SDS011;7667;51.232;17.110;2022-11-15T17:28:08;36.30;;;27.60;;